リヤド の空港の天気 - METARとTAF

キング・ハーリド国際空港(リヤド) ( OERK / RUH ) - サウジアラビア リヤド
飛行場実況気象(Metar)
観測時間04/30 17:09 +03 (04/30 14:09 UTC)
風向・風速北西 9m/s
視程3000m
天気現象高い風塵
全天の8割程度の雲 雲底高度 1220m
全天を覆う雲 雲底高度 2440m
気温31℃
湿度19%
気圧1014hPa
METAROERK 301409Z 32018KT 3000 BLDU BKN040 OVC080 31/05 Q1014
過去の天気等 Google飛行場航空写真 Wunderground天気予報

過去48時間のMETAR

飛行場予報(TAF)
発表時間: 4/30 14:00 +03 (4/30 11:00 UTC)
予報対象時間: 30日15時 +03 ~ 1日21時 +03
風向・風速北 4m/s 瞬間風速 9m/s
視程6,000m
全天の4割程度の雲 雲底高度 1,220m
全天の4割程度の雲 雲底高度 3,050m
30日15時 +03 ~ 30日23時 +03 に一時的に
視程3,000m
天気現象風塵 高い風塵
少しの積乱雲 雲底高度 1,070m
TAF OERK 301100Z 3012/0118 36008G18KT 6000 SCT040 SCT100
TEMPO 3012/3020 3000 DU BLDU FEW035CB